Aeroporto :
LOGIN :

Iscrizione | Disclaimer

   EN    FR    IT 

 










Sommario :    VFR   VFR Marginale   IFR   IFR Intensivo   IFR Molto Intensivo
Visibilità : 
Base nubi : 
>= 8 km
>= 3000ft
5 / 8 km
1000 / 3000 ft
1500m / 5 km
500 / 1000 ft
800 / 1500m
200 / 500 ft
< 800m
< 200 ft
Simboli :   Temporali  Nebbia  Neve Forte  Precipitazioni Forti  Vento > 20 kt
SIGMETs :   Varie  Temporali  Ghiacco  Turbolenza  Onda orograficha  Ceneri Vulcaniche






- Altitudine del aeroporto : 294 ft
- Codice IATA : NAP


LIRN - Naples Capodichino

ULTIMO METAR :
  • 171450Z 18004KT 120V250 9999 SCT030 15/09 Q1026 NOSIG

METARs OBSOLETI :
  • 171420Z 21006KT 180V250 9999 SCT030 14/10 Q1026 NOSIG
  • 171350Z 21007KT 9999 FEW020 SCT040 14/09 Q1027 NOSIG
  • 171320Z 21006KT 180V250 9999 SCT030 15/10 Q1027 NOSIG
  • 171250Z 20005KT 150V260 9999 SCT030 15/10 Q1027 NOSIG
  • 171220Z 21006KT 160V260 9999 SCT020 15/09 Q1028 NOSIG

TAF TAF LIRN
Valido dal 17 a 12 ore il 18 a 12 ore UTC


171100Z 1712/1812 VRB05KT 9999 FEW040



MetMap, La meteo Aeronautica in un colpo d'occhio ! - Copyright ORBIFLY Dicembre 2007 - Disclaimer

ORBIFLY MET'MAP TEAM :

Programmazione e sviluppo : Alexandra Zaïnal
Concezione : Baudouin d'Aumeries
Aiuto per la programmazione : Marc-Olivier Méhu
Supporto tecnico e logistico : Manuel Goepfert
Aiuto per la traduzione : Arnaldo La Scala

Contatto : metmap@orbifly.com




FONTI E CREDITI :

   NOAA